sensor_id;sensor_type;location;lat;lon;timestamp;P1;durP1;ratioP1;P2;durP2;ratioP2
57663;SDS011;43493;53.098;6.064;2024-03-25T00:02:08;15.80;;;3.77;;
57663;SDS011;43493;53.098;6.064;2024-03-25T00:04:34;17.87;;;3.47;;
57663;SDS011;43493;53.098;6.064;2024-03-25T00:07:00;20.80;;;3.40;;
57663;SDS011;43493;53.098;6.064;2024-03-25T00:09:27;17.80;;;3.07;;
57663;SDS011;43493;53.098;6.064;2024-03-25T00:11:53;15.00;;;2.90;;
57663;SDS011;43493;53.098;6.064;2024-03-25T00:14:22;21.57;;;3.90;;
57663;SDS011;43493;53.098;6.064;2024-03-25T00:16:48;12.63;;;3.40;;
57663;SDS011;43493;53.098;6.064;2024-03-25T00:19:14;19.23;;;3.50;;
57663;SDS011;43493;53.098;6.064;2024-03-25T00:21:40;18.43;;;3.27;;
57663;SDS011;43493;53.098;6.064;2024-03-25T00:24:07;15.57;;;3.47;;
57663;SDS011;43493;53.098;6.064;2024-03-25T00:26:33;17.47;;;3.23;;
57663;SDS011;43493;53.098;6.064;2024-03-25T00:28:59;20.47;;;3.10;;
57663;SDS011;43493;53.098;6.064;2024-03-25T00:31:25;18.90;;;4.00;;
57663;SDS011;43493;53.098;6.064;2024-03-25T00:33:50;26.57;;;4.70;;
57663;SDS011;43493;53.098;6.064;2024-03-25T00:36:16;15.20;;;3.77;;
57663;SDS011;43493;53.098;6.064;2024-03-25T00:38:42;20.43;;;3.73;;
57663;SDS011;43493;53.098;6.064;2024-03-25T00:41:08;19.33;;;3.70;;
57663;SDS011;43493;53.098;6.064;2024-03-25T00:43:34;15.40;;;3.60;;
57663;SDS011;43493;53.098;6.064;2024-03-25T00:46:00;17.00;;;3.70;;
57663;SDS011;43493;53.098;6.064;2024-03-25T00:48:26;21.47;;;4.20;;
57663;SDS011;43493;53.098;6.064;2024-03-25T00:50:52;22.33;;;3.83;;
57663;SDS011;43493;53.098;6.064;2024-03-25T00:53:17;18.73;;;3.50;;
57663;SDS011;43493;53.098;6.064;2024-03-25T00:55:43;22.13;;;3.60;;
57663;SDS011;43493;53.098;6.064;2024-03-25T00:58:09;16.17;;;3.13;;
57663;SDS011;43493;53.098;6.064;2024-03-25T01:00:35;17.33;;;3.20;;
57663;SDS011;43493;53.098;6.064;2024-03-25T01:03:01;21.27;;;3.67;;
57663;SDS011;43493;53.098;6.064;2024-03-25T01:05:27;20.73;;;3.23;;
57663;SDS011;43493;53.098;6.064;2024-03-25T01:07:52;22.07;;;3.83;;
57663;SDS011;43493;53.098;6.064;2024-03-25T01:10:18;16.13;;;3.67;;
57663;SDS011;43493;53.098;6.064;2024-03-25T01:12:44;12.57;;;2.63;;
57663;SDS011;43493;53.098;6.064;2024-03-25T01:15:10;20.70;;;3.93;;
57663;SDS011;43493;53.098;6.064;2024-03-25T01:17:37;19.90;;;4.10;;
57663;SDS011;43493;53.098;6.064;2024-03-25T01:20:02;26.00;;;3.93;;
57663;SDS011;43493;53.098;6.064;2024-03-25T01:22:30;26.40;;;5.40;;
57663;SDS011;43493;53.098;6.064;2024-03-25T01:24:56;15.83;;;3.67;;
57663;SDS011;43493;53.098;6.064;2024-03-25T01:27:22;18.73;;;3.57;;
57663;SDS011;43493;53.098;6.064;2024-03-25T01:29:48;18.23;;;3.53;;
57663;SDS011;43493;53.098;6.064;2024-03-25T01:32:13;24.00;;;4.00;;
57663;SDS011;43493;53.098;6.064;2024-03-25T01:34:39;20.20;;;4.43;;
57663;SDS011;43493;53.098;6.064;2024-03-25T01:37:05;17.07;;;3.70;;
57663;SDS011;43493;53.098;6.064;2024-03-25T01:39:31;18.60;;;3.57;;
57663;SDS011;43493;53.098;6.064;2024-03-25T01:41:56;25.50;;;4.77;;
57663;SDS011;43493;53.098;6.064;2024-03-25T01:44:22;21.30;;;3.53;;
57663;SDS011;43493;53.098;6.064;2024-03-25T01:46:48;17.03;;;2.80;;
57663;SDS011;43493;53.098;6.064;2024-03-25T01:49:14;19.77;;;4.00;;
57663;SDS011;43493;53.098;6.064;2024-03-25T01:51:40;19.20;;;3.60;;
57663;SDS011;43493;53.098;6.064;2024-03-25T01:54:06;29.43;;;4.73;;
57663;SDS011;43493;53.098;6.064;2024-03-25T01:56:33;25.90;;;4.27;;
57663;SDS011;43493;53.098;6.064;2024-03-25T01:59:00;20.50;;;3.37;;
57663;SDS011;43493;53.098;6.064;2024-03-25T02:01:26;19.87;;;4.37;;
57663;SDS011;43493;53.098;6.064;2024-03-25T02:03:52;22.07;;;3.60;;
57663;SDS011;43493;53.098;6.064;2024-03-25T02:06:20;20.53;;;4.03;;
57663;SDS011;43493;53.098;6.064;2024-03-25T02:08:47;18.83;;;3.22;;
57663;SDS011;43493;53.098;6.064;2024-03-25T02:11:14;18.70;;;3.60;;
57663;SDS011;43493;53.098;6.064;2024-03-25T02:13:40;13.37;;;2.93;;
57663;SDS011;43493;53.098;6.064;2024-03-25T02:16:06;16.63;;;3.55;;
57663;SDS011;43493;53.098;6.064;2024-03-25T02:18:32;17.77;;;3.03;;
57663;SDS011;43493;53.098;6.064;2024-03-25T02:20:58;20.23;;;3.33;;
57663;SDS011;43493;53.098;6.064;2024-03-25T02:23:24;19.50;;;4.07;;
57663;SDS011;43493;53.098;6.064;2024-03-25T02:25:50;13.65;;;2.75;;
57663;SDS011;43493;53.098;6.064;2024-03-25T02:28:17;17.00;;;4.00;;
57663;SDS011;43493;53.098;6.064;2024-03-25T02:30:42;19.47;;;3.47;;
57663;SDS011;43493;53.098;6.064;2024-03-25T02:33:08;15.07;;;2.97;;
57663;SDS011;43493;53.098;6.064;2024-03-25T02:35:34;16.23;;;2.93;;
57663;SDS011;43493;53.098;6.064;2024-03-25T02:38:00;19.40;;;3.37;;
57663;SDS011;43493;53.098;6.064;2024-03-25T02:40:28;16.77;;;3.00;;
57663;SDS011;43493;53.098;6.064;2024-03-25T02:42:54;15.20;;;3.30;;
57663;SDS011;43493;53.098;6.064;2024-03-25T02:45:20;16.13;;;2.67;;
57663;SDS011;43493;53.098;6.064;2024-03-25T02:47:46;17.70;;;2.80;;
57663;SDS011;43493;53.098;6.064;2024-03-25T02:50:12;17.02;;;3.15;;
57663;SDS011;43493;53.098;6.064;2024-03-25T02:52:38;11.23;;;3.37;;
57663;SDS011;43493;53.098;6.064;2024-03-25T02:55:04;16.90;;;3.23;;
57663;SDS011;43493;53.098;6.064;2024-03-25T02:57:30;15.60;;;2.70;;
57663;SDS011;43493;53.098;6.064;2024-03-25T02:59:55;18.90;;;3.17;;
57663;SDS011;43493;53.098;6.064;2024-03-25T03:02:21;13.60;;;3.00;;
57663;SDS011;43493;53.098;6.064;2024-03-25T03:04:47;16.23;;;3.03;;
57663;SDS011;43493;53.098;6.064;2024-03-25T03:07:12;16.13;;;2.57;;
57663;SDS011;43493;53.098;6.064;2024-03-25T03:09:38;13.43;;;3.00;;
57663;SDS011;43493;53.098;6.064;2024-03-25T03:12:04;15.00;;;2.93;;
57663;SDS011;43493;53.098;6.064;2024-03-25T03:14:30;15.37;;;3.07;;
57663;SDS011;43493;53.098;6.064;2024-03-25T03:16:56;19.07;;;3.23;;
57663;SDS011;43493;53.098;6.064;2024-03-25T03:19:24;14.32;;;2.45;;
57663;SDS011;43493;53.098;6.064;2024-03-25T03:21:50;14.73;;;3.20;;
57663;SDS011;43493;53.098;6.064;2024-03-25T03:24:16;19.57;;;3.53;;
57663;SDS011;43493;53.098;6.064;2024-03-25T03:26:42;16.70;;;2.70;;
57663;SDS011;43493;53.098;6.064;2024-03-25T03:29:07;16.87;;;2.70;;
57663;SDS011;43493;53.098;6.064;2024-03-25T03:31:33;20.27;;;3.70;;
57663;SDS011;43493;53.098;6.064;2024-03-25T03:33:59;15.88;;;2.83;;
57663;SDS011;43493;53.098;6.064;2024-03-25T03:36:25;16.67;;;3.20;;
57663;SDS011;43493;53.098;6.064;2024-03-25T03:38:51;13.27;;;2.43;;
57663;SDS011;43493;53.098;6.064;2024-03-25T03:41:17;14.37;;;2.40;;
57663;SDS011;43493;53.098;6.064;2024-03-25T03:43:43;15.93;;;2.80;;
57663;SDS011;43493;53.098;6.064;2024-03-25T03:46:08;19.33;;;2.67;;
57663;SDS011;43493;53.098;6.064;2024-03-25T03:48:34;13.30;;;2.90;;
57663;SDS011;43493;53.098;6.064;2024-03-25T03:51:00;14.27;;;3.85;;
57663;SDS011;43493;53.098;6.064;2024-03-25T03:53:26;18.60;;;2.87;;
57663;SDS011;43493;53.098;6.064;2024-03-25T03:55:56;17.17;;;2.33;;
57663;SDS011;43493;53.098;6.064;2024-03-25T03:58:23;18.23;;;3.20;;
57663;SDS011;43493;53.098;6.064;2024-03-25T04:00:50;13.95;;;2.58;;
57663;SDS011;43493;53.098;6.064;2024-03-25T04:03:16;16.93;;;2.87;;
57663;SDS011;43493;53.098;6.064;2024-03-25T04:05:42;17.23;;;3.47;;
57663;SDS011;43493;53.098;6.064;2024-03-25T04:08:08;19.17;;;3.50;;
57663;SDS011;43493;53.098;6.064;2024-03-25T04:10:33;17.40;;;3.30;;
57663;SDS011;43493;53.098;6.064;2024-03-25T04:13:00;17.83;;;3.30;;
57663;SDS011;43493;53.098;6.064;2024-03-25T04:15:25;17.57;;;3.13;;
57663;SDS011;43493;53.098;6.064;2024-03-25T04:17:51;19.50;;;4.40;;
57663;SDS011;43493;53.098;6.064;2024-03-25T04:20:17;20.02;;;3.28;;
57663;SDS011;43493;53.098;6.064;2024-03-25T04:22:44;14.63;;;3.08;;
57663;SDS011;43493;53.098;6.064;2024-03-25T04:25:10;15.23;;;2.90;;
57663;SDS011;43493;53.098;6.064;2024-03-25T04:27:40;22.95;;;3.15;;
57663;SDS011;43493;53.098;6.064;2024-03-25T04:30:06;19.17;;;3.70;;
57663;SDS011;43493;53.098;6.064;2024-03-25T04:32:33;18.33;;;3.33;;
57663;SDS011;43493;53.098;6.064;2024-03-25T04:35:00;17.95;;;3.03;;
57663;SDS011;43493;53.098;6.064;2024-03-25T04:37:26;19.43;;;3.37;;
57663;SDS011;43493;53.098;6.064;2024-03-25T04:39:53;16.38;;;3.00;;
57663;SDS011;43493;53.098;6.064;2024-03-25T04:42:19;15.77;;;3.10;;
57663;SDS011;43493;53.098;6.064;2024-03-25T04:44:45;15.70;;;3.53;;
57663;SDS011;43493;53.098;6.064;2024-03-25T04:47:11;23.27;;;5.00;;
57663;SDS011;43493;53.098;6.064;2024-03-25T04:49:36;14.90;;;3.03;;
57663;SDS011;43493;53.098;6.064;2024-03-25T04:52:03;19.95;;;3.03;;
57663;SDS011;43493;53.098;6.064;2024-03-25T04:54:29;20.13;;;3.63;;
57663;SDS011;43493;53.098;6.064;2024-03-25T04:56:55;13.23;;;3.17;;
57663;SDS011;43493;53.098;6.064;2024-03-25T04:59:21;18.23;;;3.30;;
57663;SDS011;43493;53.098;6.064;2024-03-25T05:01:47;17.00;;;3.67;;
57663;SDS011;43493;53.098;6.064;2024-03-25T05:04:12;17.27;;;3.40;;
57663;SDS011;43493;53.098;6.064;2024-03-25T05:06:38;13.97;;;2.80;;
57663;SDS011;43493;53.098;6.064;2024-03-25T05:09:04;14.80;;;2.67;;
57663;SDS011;43493;53.098;6.064;2024-03-25T05:11:31;14.38;;;3.00;;
57663;SDS011;43493;53.098;6.064;2024-03-25T05:13:57;18.10;;;3.97;;
57663;SDS011;43493;53.098;6.064;2024-03-25T05:16:23;20.60;;;3.17;;
57663;SDS011;43493;53.098;6.064;2024-03-25T05:18:49;16.23;;;3.30;;
57663;SDS011;43493;53.098;6.064;2024-03-25T05:21:15;13.10;;;2.90;;
57663;SDS011;43493;53.098;6.064;2024-03-25T05:23:40;15.73;;;2.60;;
57663;SDS011;43493;53.098;6.064;2024-03-25T05:26:07;19.43;;;4.23;;
57663;SDS011;43493;53.098;6.064;2024-03-25T05:28:33;15.83;;;2.97;;
57663;SDS011;43493;53.098;6.064;2024-03-25T05:31:08;18.57;;;2.83;;
57663;SDS011;43493;53.098;6.064;2024-03-25T05:33:34;18.88;;;3.63;;
57663;SDS011;43493;53.098;6.064;2024-03-25T05:36:00;17.50;;;3.28;;
57663;SDS011;43493;53.098;6.064;2024-03-25T05:38:27;15.87;;;3.50;;
57663;SDS011;43493;53.098;6.064;2024-03-25T05:40:53;13.38;;;2.65;;
57663;SDS011;43493;53.098;6.064;2024-03-25T05:43:19;19.60;;;3.37;;
57663;SDS011;43493;53.098;6.064;2024-03-25T05:45:52;12.97;;;2.43;;
57663;SDS011;43493;53.098;6.064;2024-03-25T05:48:18;18.70;;;3.42;;
57663;SDS011;43493;53.098;6.064;2024-03-25T05:50:44;16.23;;;2.72;;
57663;SDS011;43493;53.098;6.064;2024-03-25T05:53:10;12.03;;;2.77;;
57663;SDS011;43493;53.098;6.064;2024-03-25T05:55:36;14.70;;;2.87;;
57663;SDS011;43493;53.098;6.064;2024-03-25T05:58:01;13.23;;;3.10;;
57663;SDS011;43493;53.098;6.064;2024-03-25T06:00:28;18.45;;;3.10;;
57663;SDS011;43493;53.098;6.064;2024-03-25T06:02:55;18.45;;;3.30;;
57663;SDS011;43493;53.098;6.064;2024-03-25T06:05:21;18.30;;;4.07;;
57663;SDS011;43493;53.098;6.064;2024-03-25T06:07:47;16.37;;;3.50;;
57663;SDS011;43493;53.098;6.064;2024-03-25T06:10:13;11.67;;;2.50;;
57663;SDS011;43493;53.098;6.064;2024-03-25T06:12:38;18.37;;;2.77;;
57663;SDS011;43493;53.098;6.064;2024-03-25T06:15:04;18.50;;;3.60;;
57663;SDS011;43493;53.098;6.064;2024-03-25T06:17:31;18.00;;;3.78;;
57663;SDS011;43493;53.098;6.064;2024-03-25T06:19:57;16.43;;;3.07;;
57663;SDS011;43493;53.098;6.064;2024-03-25T06:22:22;13.90;;;2.60;;
57663;SDS011;43493;53.098;6.064;2024-03-25T06:24:48;21.83;;;3.30;;
57663;SDS011;43493;53.098;6.064;2024-03-25T06:27:15;23.95;;;3.00;;
57663;SDS011;43493;53.098;6.064;2024-03-25T06:29:41;18.00;;;3.47;;
57663;SDS011;43493;53.098;6.064;2024-03-25T06:32:08;12.25;;;2.88;;
57663;SDS011;43493;53.098;6.064;2024-03-25T06:34:52;15.77;;;2.47;;
57663;SDS011;43493;53.098;6.064;2024-03-25T06:37:18;21.60;;;3.90;;
57663;SDS011;43493;53.098;6.064;2024-03-25T06:39:44;11.63;;;2.87;;
57663;SDS011;43493;53.098;6.064;2024-03-25T06:42:10;13.77;;;2.97;;
57663;SDS011;43493;53.098;6.064;2024-03-25T06:44:35;14.97;;;3.07;;
57663;SDS011;43493;53.098;6.064;2024-03-25T06:47:01;14.63;;;3.20;;
57663;SDS011;43493;53.098;6.064;2024-03-25T06:49:27;17.50;;;3.40;;
57663;SDS011;43493;53.098;6.064;2024-03-25T06:51:53;13.90;;;3.13;;
57663;SDS011;43493;53.098;6.064;2024-03-25T06:54:19;13.03;;;2.90;;
57663;SDS011;43493;53.098;6.064;2024-03-25T06:56:45;13.53;;;2.60;;
57663;SDS011;43493;53.098;6.064;2024-03-25T06:59:11;12.37;;;2.60;;
57663;SDS011;43493;53.098;6.064;2024-03-25T07:01:36;15.03;;;3.00;;
57663;SDS011;43493;53.098;6.064;2024-03-25T07:04:02;13.27;;;3.17;;
57663;SDS011;43493;53.098;6.064;2024-03-25T07:06:28;15.20;;;2.60;;
57663;SDS011;43493;53.098;6.064;2024-03-25T07:08:54;14.60;;;2.20;;
57663;SDS011;43493;53.098;6.064;2024-03-25T07:11:20;13.97;;;2.40;;
57663;SDS011;43493;53.098;6.064;2024-03-25T07:13:45;14.20;;;2.90;;
57663;SDS011;43493;53.098;6.064;2024-03-25T07:16:12;14.60;;;2.40;;
57663;SDS011;43493;53.098;6.064;2024-03-25T07:18:37;20.37;;;4.20;;
57663;SDS011;43493;53.098;6.064;2024-03-25T07:21:03;14.83;;;3.37;;
57663;SDS011;43493;53.098;6.064;2024-03-25T07:23:29;11.27;;;2.97;;
57663;SDS011;43493;53.098;6.064;2024-03-25T07:25:55;11.27;;;2.27;;
57663;SDS011;43493;53.098;6.064;2024-03-25T07:28:21;15.63;;;3.40;;
57663;SDS011;43493;53.098;6.064;2024-03-25T07:30:49;9.67;;;2.10;;
57663;SDS011;43493;53.098;6.064;2024-03-25T07:33:15;12.23;;;3.13;;
57663;SDS011;43493;53.098;6.064;2024-03-25T07:35:42;13.53;;;2.80;;
57663;SDS011;43493;53.098;6.064;2024-03-25T07:38:09;11.40;;;2.70;;
57663;SDS011;43493;53.098;6.064;2024-03-25T07:40:35;15.47;;;3.70;;
57663;SDS011;43493;53.098;6.064;2024-03-25T07:43:01;10.03;;;2.93;;
57663;SDS011;43493;53.098;6.064;2024-03-25T07:45:26;15.63;;;3.30;;
57663;SDS011;43493;53.098;6.064;2024-03-25T07:47:52;14.07;;;3.40;;
57663;SDS011;43493;53.098;6.064;2024-03-25T07:50:18;12.60;;;2.50;;
57663;SDS011;43493;53.098;6.064;2024-03-25T07:52:45;11.53;;;2.90;;
57663;SDS011;43493;53.098;6.064;2024-03-25T07:55:10;13.07;;;2.93;;
57663;SDS011;43493;53.098;6.064;2024-03-25T07:57:38;11.57;;;2.43;;
57663;SDS011;43493;53.098;6.064;2024-03-25T08:00:04;13.97;;;2.87;;
57663;SDS011;43493;53.098;6.064;2024-03-25T08:02:30;7.83;;;2.07;;
57663;SDS011;43493;53.098;6.064;2024-03-25T08:04:56;15.40;;;2.90;;
57663;SDS011;43493;53.098;6.064;2024-03-25T08:07:22;11.43;;;2.40;;
57663;SDS011;43493;53.098;6.064;2024-03-25T08:09:47;12.47;;;2.93;;
57663;SDS011;43493;53.098;6.064;2024-03-25T08:12:13;17.80;;;2.87;;
57663;SDS011;43493;53.098;6.064;2024-03-25T08:14:39;11.73;;;2.43;;
57663;SDS011;43493;53.098;6.064;2024-03-25T08:17:04;11.53;;;2.77;;
57663;SDS011;43493;53.098;6.064;2024-03-25T08:19:30;13.10;;;2.67;;
57663;SDS011;43493;53.098;6.064;2024-03-25T08:21:56;12.73;;;2.93;;
57663;SDS011;43493;53.098;6.064;2024-03-25T08:24:22;14.83;;;3.13;;
57663;SDS011;43493;53.098;6.064;2024-03-25T08:26:48;14.17;;;2.80;;
57663;SDS011;43493;53.098;6.064;2024-03-25T08:29:14;15.00;;;3.10;;
57663;SDS011;43493;53.098;6.064;2024-03-25T08:31:39;11.10;;;3.07;;
57663;SDS011;43493;53.098;6.064;2024-03-25T08:34:05;16.57;;;3.23;;
57663;SDS011;43493;53.098;6.064;2024-03-25T08:36:32;19.90;;;4.10;;
57663;SDS011;43493;53.098;6.064;2024-03-25T08:38:57;15.03;;;3.33;;
57663;SDS011;43493;53.098;6.064;2024-03-25T08:41:23;14.93;;;2.80;;
57663;SDS011;43493;53.098;6.064;2024-03-25T08:43:49;16.50;;;2.97;;
57663;SDS011;43493;53.098;6.064;2024-03-25T08:46:14;17.03;;;2.67;;
57663;SDS011;43493;53.098;6.064;2024-03-25T08:48:40;15.73;;;2.90;;
57663;SDS011;43493;53.098;6.064;2024-03-25T08:51:06;15.37;;;2.90;;
57663;SDS011;43493;53.098;6.064;2024-03-25T08:53:32;21.93;;;3.30;;
57663;SDS011;43493;53.098;6.064;2024-03-25T08:55:58;13.90;;;2.87;;
57663;SDS011;43493;53.098;6.064;2024-03-25T08:58:24;15.27;;;3.27;;
57663;SDS011;43493;53.098;6.064;2024-03-25T09:00:50;10.03;;;2.30;;
57663;SDS011;43493;53.098;6.064;2024-03-25T09:03:16;16.50;;;2.73;;
57663;SDS011;43493;53.098;6.064;2024-03-25T09:05:41;16.17;;;3.43;;
57663;SDS011;43493;53.098;6.064;2024-03-25T09:08:07;9.17;;;2.23;;
57663;SDS011;43493;53.098;6.064;2024-03-25T09:10:36;13.77;;;3.23;;
57663;SDS011;43493;53.098;6.064;2024-03-25T09:13:21;13.73;;;2.40;;
57663;SDS011;43493;53.098;6.064;2024-03-25T09:15:48;13.90;;;3.47;;
57663;SDS011;43493;53.098;6.064;2024-03-25T09:18:14;14.40;;;2.50;;
57663;SDS011;43493;53.098;6.064;2024-03-25T09:20:40;14.20;;;3.50;;
57663;SDS011;43493;53.098;6.064;2024-03-25T09:23:06;13.43;;;2.60;;
57663;SDS011;43493;53.098;6.064;2024-03-25T09:25:32;14.53;;;3.00;;
57663;SDS011;43493;53.098;6.064;2024-03-25T09:27:58;12.47;;;2.73;;
57663;SDS011;43493;53.098;6.064;2024-03-25T09:30:24;10.63;;;2.33;;
57663;SDS011;43493;53.098;6.064;2024-03-25T09:32:49;16.80;;;2.53;;
57663;SDS011;43493;53.098;6.064;2024-03-25T09:35:15;11.70;;;2.37;;
57663;SDS011;43493;53.098;6.064;2024-03-25T09:37:41;14.53;;;2.40;;
57663;SDS011;43493;53.098;6.064;2024-03-25T09:40:07;14.63;;;3.33;;
57663;SDS011;43493;53.098;6.064;2024-03-25T09:42:42;12.73;;;3.33;;
57663;SDS011;43493;53.098;6.064;2024-03-25T09:45:17;16.50;;;2.93;;
57663;SDS011;43493;53.098;6.064;2024-03-25T09:47:46;16.50;;;3.00;;
57663;SDS011;43493;53.098;6.064;2024-03-25T09:50:13;17.63;;;3.77;;
57663;SDS011;43493;53.098;6.064;2024-03-25T09:52:44;15.23;;;3.03;;
57663;SDS011;43493;53.098;6.064;2024-03-25T09:55:10;16.13;;;2.83;;
57663;SDS011;43493;53.098;6.064;2024-03-25T09:57:36;19.57;;;3.57;;
57663;SDS011;43493;53.098;6.064;2024-03-25T10:00:04;18.63;;;2.90;;
57663;SDS011;43493;53.098;6.064;2024-03-25T10:02:32;14.17;;;3.10;;
57663;SDS011;43493;53.098;6.064;2024-03-25T10:04:59;12.03;;;2.23;;
57663;SDS011;43493;53.098;6.064;2024-03-25T10:07:26;12.57;;;2.60;;
57663;SDS011;43493;53.098;6.064;2024-03-25T10:09:52;12.33;;;2.20;;
57663;SDS011;43493;53.098;6.064;2024-03-25T10:12:18;15.07;;;2.57;;
57663;SDS011;43493;53.098;6.064;2024-03-25T10:14:43;12.43;;;3.10;;
57663;SDS011;43493;53.098;6.064;2024-03-25T10:17:09;12.73;;;2.67;;
57663;SDS011;43493;53.098;6.064;2024-03-25T10:19:35;11.07;;;2.47;;
57663;SDS011;43493;53.098;6.064;2024-03-25T10:22:04;15.47;;;3.50;;
57663;SDS011;43493;53.098;6.064;2024-03-25T10:24:44;16.60;;;3.63;;
57663;SDS011;43493;53.098;6.064;2024-03-25T10:27:17;11.77;;;2.33;;
57663;SDS011;43493;53.098;6.064;2024-03-25T10:29:47;17.47;;;3.07;;
57663;SDS011;43493;53.098;6.064;2024-03-25T10:32:17;15.23;;;2.70;;
57663;SDS011;43493;53.098;6.064;2024-03-25T10:34:42;10.90;;;2.20;;
57663;SDS011;43493;53.098;6.064;2024-03-25T10:37:09;9.20;;;2.37;;
57663;SDS011;43493;53.098;6.064;2024-03-25T10:39:39;13.87;;;2.87;;
57663;SDS011;43493;53.098;6.064;2024-03-25T10:42:13;8.70;;;2.20;;
57663;SDS011;43493;53.098;6.064;2024-03-25T10:44:39;11.47;;;2.40;;
57663;SDS011;43493;53.098;6.064;2024-03-25T10:47:05;12.13;;;2.27;;
57663;SDS011;43493;53.098;6.064;2024-03-25T10:49:34;11.03;;;2.90;;
57663;SDS011;43493;53.098;6.064;2024-03-25T10:52:22;18.17;;;2.90;;
57663;SDS011;43493;53.098;6.064;2024-03-25T10:54:50;11.73;;;2.20;;
57663;SDS011;43493;53.098;6.064;2024-03-25T10:57:16;15.40;;;2.80;;
57663;SDS011;43493;53.098;6.064;2024-03-25T10:59:43;15.23;;;2.50;;
57663;SDS011;43493;53.098;6.064;2024-03-25T11:02:10;10.13;;;2.67;;
57663;SDS011;43493;53.098;6.064;2024-03-25T11:04:37;9.57;;;2.20;;
57663;SDS011;43493;53.098;6.064;2024-03-25T11:07:10;10.57;;;2.97;;
57663;SDS011;43493;53.098;6.064;2024-03-25T11:09:37;11.13;;;2.60;;
57663;SDS011;43493;53.098;6.064;2024-03-25T11:12:03;10.47;;;2.37;;
57663;SDS011;43493;53.098;6.064;2024-03-25T11:14:29;10.57;;;2.30;;
57663;SDS011;43493;53.098;6.064;2024-03-25T11:16:59;11.63;;;2.10;;
57663;SDS011;43493;53.098;6.064;2024-03-25T11:19:25;13.50;;;3.50;;
57663;SDS011;43493;53.098;6.064;2024-03-25T11:21:52;9.73;;;2.43;;
57663;SDS011;43493;53.098;6.064;2024-03-25T11:24:28;12.97;;;2.77;;
57663;SDS011;43493;53.098;6.064;2024-03-25T11:29:19;8.10;;;2.13;;
57663;SDS011;43493;53.098;6.064;2024-03-25T11:31:45;14.10;;;3.07;;
57663;SDS011;43493;53.098;6.064;2024-03-25T11:34:14;10.27;;;3.17;;
57663;SDS011;43493;53.098;6.064;2024-03-25T11:36:40;8.90;;;1.97;;
57663;SDS011;43493;53.098;6.064;2024-03-25T11:39:06;13.70;;;2.70;;
57663;SDS011;43493;53.098;6.064;2024-03-25T11:41:41;13.43;;;2.90;;
57663;SDS011;43493;53.098;6.064;2024-03-25T11:44:08;10.83;;;2.50;;
57663;SDS011;43493;53.098;6.064;2024-03-25T11:46:38;10.47;;;2.33;;
57663;SDS011;43493;53.098;6.064;2024-03-25T11:49:07;10.07;;;2.37;;
57663;SDS011;43493;53.098;6.064;2024-03-25T11:51:37;13.23;;;2.93;;
57663;SDS011;43493;53.098;6.064;2024-03-25T11:54:06;9.63;;;2.37;;
57663;SDS011;43493;53.098;6.064;2024-03-25T11:56:32;11.03;;;2.00;;
57663;SDS011;43493;53.098;6.064;2024-03-25T11:59:01;8.03;;;1.97;;
57663;SDS011;43493;53.098;6.064;2024-03-25T12:01:28;15.43;;;2.37;;
57663;SDS011;43493;53.098;6.064;2024-03-25T12:03:54;12.30;;;2.20;;
57663;SDS011;43493;53.098;6.064;2024-03-25T12:06:20;10.73;;;2.87;;
57663;SDS011;43493;53.098;6.064;2024-03-25T12:08:46;13.53;;;2.23;;
57663;SDS011;43493;53.098;6.064;2024-03-25T12:11:30;10.97;;;2.60;;
57663;SDS011;43493;53.098;6.064;2024-03-25T12:13:56;11.67;;;2.20;;
57663;SDS011;43493;53.098;6.064;2024-03-25T12:16:23;12.47;;;2.37;;
57663;SDS011;43493;53.098;6.064;2024-03-25T12:18:49;9.77;;;2.30;;
57663;SDS011;43493;53.098;6.064;2024-03-25T12:21:14;9.83;;;2.50;;
57663;SDS011;43493;53.098;6.064;2024-03-25T12:23:41;10.23;;;1.70;;
57663;SDS011;43493;53.098;6.064;2024-03-25T12:26:07;10.03;;;2.27;;
57663;SDS011;43493;53.098;6.064;2024-03-25T12:28:33;12.40;;;3.07;;
57663;SDS011;43493;53.098;6.064;2024-03-25T12:31:06;10.03;;;2.07;;
57663;SDS011;43493;53.098;6.064;2024-03-25T12:33:42;9.00;;;1.90;;
57663;SDS011;43493;53.098;6.064;2024-03-25T12:36:14;11.97;;;2.60;;
57663;SDS011;43493;53.098;6.064;2024-03-25T12:38:40;8.07;;;2.10;;
57663;SDS011;43493;53.098;6.064;2024-03-25T12:41:07;9.47;;;2.50;;
57663;SDS011;43493;53.098;6.064;2024-03-25T12:43:34;9.83;;;2.17;;
57663;SDS011;43493;53.098;6.064;2024-03-25T12:46:01;10.07;;;1.87;;
57663;SDS011;43493;53.098;6.064;2024-03-25T12:48:29;8.37;;;2.10;;
57663;SDS011;43493;53.098;6.064;2024-03-25T12:50:55;12.83;;;2.57;;
57663;SDS011;43493;53.098;6.064;2024-03-25T12:53:20;13.77;;;2.63;;
57663;SDS011;43493;53.098;6.064;2024-03-25T12:55:46;7.33;;;1.77;;
57663;SDS011;43493;53.098;6.064;2024-03-25T12:58:13;8.27;;;1.63;;
57663;SDS011;43493;53.098;6.064;2024-03-25T13:00:39;11.37;;;3.67;;
57663;SDS011;43493;53.098;6.064;2024-03-25T13:03:06;11.47;;;2.90;;
57663;SDS011;43493;53.098;6.064;2024-03-25T13:05:35;12.17;;;2.27;;
57663;SDS011;43493;53.098;6.064;2024-03-25T13:08:01;9.10;;;2.27;;
57663;SDS011;43493;53.098;6.064;2024-03-25T13:10:28;12.03;;;2.23;;
57663;SDS011;43493;53.098;6.064;2024-03-25T13:12:55;9.97;;;2.50;;
57663;SDS011;43493;53.098;6.064;2024-03-25T13:15:21;14.67;;;2.30;;
57663;SDS011;43493;53.098;6.064;2024-03-25T13:17:47;11.30;;;2.73;;
57663;SDS011;43493;53.098;6.064;2024-03-25T13:20:13;7.77;;;1.80;;
57663;SDS011;43493;53.098;6.064;2024-03-25T13:22:39;10.03;;;2.23;;
57663;SDS011;43493;53.098;6.064;2024-03-25T13:25:05;10.60;;;1.93;;
57663;SDS011;43493;53.098;6.064;2024-03-25T13:27:31;8.57;;;1.90;;
57663;SDS011;43493;53.098;6.064;2024-03-25T13:29:57;5.57;;;1.73;;
57663;SDS011;43493;53.098;6.064;2024-03-25T13:32:23;12.27;;;2.40;;
57663;SDS011;43493;53.098;6.064;2024-03-25T13:34:49;10.53;;;1.97;;
57663;SDS011;43493;53.098;6.064;2024-03-25T13:37:15;8.57;;;2.20;;
57663;SDS011;43493;53.098;6.064;2024-03-25T13:39:41;8.87;;;1.90;;
57663;SDS011;43493;53.098;6.064;2024-03-25T13:42:07;9.40;;;2.40;;
57663;SDS011;43493;53.098;6.064;2024-03-25T13:44:33;9.60;;;2.07;;
57663;SDS011;43493;53.098;6.064;2024-03-25T13:46:58;7.27;;;1.87;;
57663;SDS011;43493;53.098;6.064;2024-03-25T13:49:24;9.60;;;2.57;;
57663;SDS011;43493;53.098;6.064;2024-03-25T13:51:56;9.97;;;2.33;;
57663;SDS011;43493;53.098;6.064;2024-03-25T13:54:28;7.97;;;2.13;;
57663;SDS011;43493;53.098;6.064;2024-03-25T13:56:55;6.27;;;1.63;;
57663;SDS011;43493;53.098;6.064;2024-03-25T13:59:21;12.03;;;2.50;;
57663;SDS011;43493;53.098;6.064;2024-03-25T14:01:47;9.13;;;2.23;;
57663;SDS011;43493;53.098;6.064;2024-03-25T14:04:13;6.97;;;1.90;;
57663;SDS011;43493;53.098;6.064;2024-03-25T14:06:38;7.60;;;2.30;;
57663;SDS011;43493;53.098;6.064;2024-03-25T14:09:05;6.73;;;1.93;;
57663;SDS011;43493;53.098;6.064;2024-03-25T14:11:34;7.97;;;2.33;;
57663;SDS011;43493;53.098;6.064;2024-03-25T14:14:00;6.77;;;1.70;;
57663;SDS011;43493;53.098;6.064;2024-03-25T14:16:26;7.43;;;1.80;;
57663;SDS011;43493;53.098;6.064;2024-03-25T14:18:53;12.30;;;3.40;;
57663;SDS011;43493;53.098;6.064;2024-03-25T14:21:18;8.83;;;2.27;;
57663;SDS011;43493;53.098;6.064;2024-03-25T14:23:44;6.60;;;1.70;;
57663;SDS011;43493;53.098;6.064;2024-03-25T14:26:11;8.10;;;1.97;;
57663;SDS011;43493;53.098;6.064;2024-03-25T14:28:37;7.87;;;2.63;;
57663;SDS011;43493;53.098;6.064;2024-03-25T14:31:05;8.60;;;2.00;;
57663;SDS011;43493;53.098;6.064;2024-03-25T14:33:31;7.50;;;1.73;;
57663;SDS011;43493;53.098;6.064;2024-03-25T14:35:57;9.63;;;1.77;;